createdAt,value
2022-09-30T00:00:26.565Z,99.90
2022-09-30T00:01:29.590Z,99.90
2022-09-30T00:02:36.595Z,99.90
2022-09-30T00:03:41.576Z,99.90
2022-09-30T00:04:46.431Z,99.90
2022-09-30T00:05:56.169Z,99.90
2022-09-30T00:07:02.221Z,99.90
2022-09-30T00:08:09.724Z,99.90
2022-09-30T00:09:15.504Z,99.90
2022-09-30T00:10:26.567Z,99.90
2022-09-30T00:11:36.189Z,99.90
2022-09-30T00:12:42.656Z,99.90
2022-09-30T00:13:59.743Z,99.90
2022-09-30T00:15:08.692Z,99.90
2022-09-30T00:16:14.003Z,99.90
2022-09-30T00:17:30.498Z,99.90
2022-09-30T00:18:42.202Z,99.90
2022-09-30T00:19:48.004Z,99.90
2022-09-30T00:20:53.436Z,99.90
2022-09-30T00:21:58.644Z,99.90
2022-09-30T00:23:12.066Z,99.90
2022-09-30T00:24:16.484Z,99.90
2022-09-30T00:25:24.374Z,99.90
2022-09-30T00:26:32.543Z,99.90
2022-09-30T00:27:38.587Z,99.90
2022-09-30T00:28:46.623Z,99.90
2022-09-30T00:29:50.166Z,99.90
2022-09-30T00:30:57.432Z,99.90
2022-09-30T00:32:03.646Z,99.90
2022-09-30T00:33:08.006Z,99.90
2022-09-30T00:34:13.315Z,99.90
2022-09-30T00:35:20.531Z,99.90
2022-09-30T00:36:30.841Z,99.90
2022-09-30T00:37:36.363Z,99.90
2022-09-30T00:38:45.456Z,99.90
2022-09-30T00:39:50.092Z,99.90
2022-09-30T00:40:57.022Z,99.90
2022-09-30T00:42:05.141Z,99.90
2022-09-30T00:43:17.093Z,99.90
2022-09-30T00:44:59.109Z,99.90
2022-09-30T00:46:08.492Z,99.90
2022-09-30T00:47:38.884Z,99.90
2022-09-30T00:48:46.675Z,99.90
2022-09-30T00:49:58.321Z,99.90
2022-09-30T00:51:14.768Z,99.90
2022-09-30T00:52:20.999Z,99.90
2022-09-30T00:53:32.736Z,99.90
2022-09-30T00:54:42.904Z,99.90
2022-09-30T00:55:55.747Z,99.90
2022-09-30T00:57:03.292Z,99.90
2022-09-30T00:58:24.107Z,99.90
2022-09-30T00:59:37.018Z,99.90
2022-09-30T01:00:43.593Z,99.90
2022-09-30T01:01:51.982Z,99.90
2022-09-30T01:02:59.066Z,99.90
2022-09-30T01:04:14.009Z,99.90
2022-09-30T01:05:20.342Z,99.90
2022-09-30T01:06:27.203Z,99.90
2022-09-30T01:07:31.569Z,99.90
2022-09-30T01:08:37.562Z,99.90
2022-09-30T01:09:46.146Z,99.90
2022-09-30T01:10:51.669Z,99.90
2022-09-30T01:12:05.934Z,99.90
2022-09-30T01:13:12.064Z,99.90
2022-09-30T01:14:27.826Z,99.90
2022-09-30T01:15:43.744Z,99.90
2022-09-30T01:17:08.513Z,99.90
2022-09-30T01:18:36.585Z,99.90
2022-09-30T01:20:26.324Z,99.90
2022-09-30T01:22:08.424Z,99.90
2022-09-30T01:23:58.738Z,99.90
2022-09-30T01:25:32.894Z,99.90
2022-09-30T01:27:04.748Z,99.90
2022-09-30T01:28:44.220Z,99.90
2022-09-30T01:30:24.262Z,99.90
2022-09-30T01:31:50.832Z,99.90
2022-09-30T01:33:21.410Z,99.90
2022-09-30T01:34:45.996Z,99.90
2022-09-30T01:36:30.066Z,99.90
2022-09-30T01:37:54.693Z,99.90
2022-09-30T01:39:14.671Z,99.90
2022-09-30T01:40:31.756Z,99.90
2022-09-30T01:41:56.453Z,99.90
2022-09-30T01:43:21.644Z,99.90
2022-09-30T01:44:41.115Z,99.90
2022-09-30T01:45:59.738Z,99.90
2022-09-30T01:47:14.284Z,99.90
2022-09-30T01:48:45.844Z,99.90
2022-09-30T01:49:59.480Z,99.90
2022-09-30T01:51:12.434Z,99.90
2022-09-30T01:52:29.733Z,99.90
2022-09-30T01:53:37.938Z,99.90
2022-09-30T01:55:03.539Z,99.90
2022-09-30T01:56:19.189Z,99.90
2022-09-30T01:57:30.211Z,99.90
2022-09-30T01:58:43.637Z,99.90
2022-09-30T01:59:53.432Z,99.90
2022-09-30T02:01:12.259Z,99.90
2022-09-30T02:02:23.731Z,99.90
2022-09-30T02:03:36.176Z,99.90
2022-09-30T02:04:42.974Z,99.90
2022-09-30T02:06:05.937Z,99.90
2022-09-30T02:07:14.368Z,99.90
2022-09-30T02:08:31.280Z,99.90
2022-09-30T02:09:53.878Z,99.90
2022-09-30T02:11:03.779Z,99.90
2022-09-30T02:12:16.409Z,99.90
2022-09-30T02:13:33.250Z,99.90
2022-09-30T02:14:48.683Z,99.90
2022-09-30T02:16:13.461Z,99.90
2022-09-30T02:17:31.353Z,99.90
2022-09-30T02:18:42.623Z,99.90
2022-09-30T02:19:55.035Z,99.90
2022-09-30T02:21:05.459Z,99.90
2022-09-30T02:22:24.296Z,99.90
2022-09-30T02:23:35.666Z,99.90
2022-09-30T02:24:57.070Z,99.90
2022-09-30T02:26:08.670Z,99.90
2022-09-30T02:27:22.641Z,99.90
2022-09-30T02:28:29.756Z,99.90
2022-09-30T02:29:43.448Z,99.90
2022-09-30T02:30:56.420Z,99.90
2022-09-30T02:32:14.612Z,99.90
2022-09-30T02:33:33.731Z,99.90
2022-09-30T02:34:54.785Z,99.90
2022-09-30T02:36:06.073Z,99.90
2022-09-30T02:37:24.784Z,99.90
2022-09-30T02:38:39.713Z,99.90
2022-09-30T02:39:50.351Z,99.90
2022-09-30T02:41:03.987Z,99.90
2022-09-30T02:42:27.569Z,99.90
2022-09-30T02:43:39.200Z,99.90
2022-09-30T02:44:46.415Z,99.90
2022-09-30T02:46:02.721Z,99.90
2022-09-30T02:47:18.089Z,99.90
2022-09-30T02:48:43.083Z,99.90
2022-09-30T02:49:55.247Z,99.90
2022-09-30T02:51:10.689Z,99.90
2022-09-30T02:52:30.293Z,99.90
2022-09-30T02:53:34.861Z,99.90
2022-09-30T02:55:08.440Z,99.90
2022-09-30T02:56:26.031Z,99.90
2022-09-30T02:57:44.952Z,99.90
2022-09-30T02:58:58.457Z,99.90
2022-09-30T03:00:12.537Z,99.90
2022-09-30T03:01:22.711Z,99.90
2022-09-30T03:02:32.528Z,99.90
2022-09-30T03:03:45.331Z,99.90
2022-09-30T03:04:55.807Z,99.90
2022-09-30T03:06:02.297Z,99.90
2022-09-30T03:07:08.077Z,99.90
2022-09-30T03:08:20.175Z,99.90
2022-09-30T03:09:32.297Z,99.90
2022-09-30T03:10:44.242Z,99.90
2022-09-30T03:11:53.995Z,99.90
2022-09-30T03:13:27.634Z,99.90
2022-09-30T03:15:01.340Z,99.90
2022-09-30T03:16:22.752Z,99.90
2022-09-30T03:17:43.677Z,99.90
2022-09-30T03:19:12.290Z,99.90
2022-09-30T03:20:47.093Z,99.90
2022-09-30T03:22:17.533Z,99.90
2022-09-30T03:23:57.967Z,99.90
2022-09-30T03:25:43.289Z,99.90
2022-09-30T03:27:03.476Z,99.90
2022-09-30T03:28:23.594Z,99.90
2022-09-30T03:29:49.853Z,99.90
2022-09-30T03:31:08.674Z,99.90
2022-09-30T03:32:28.797Z,99.90
2022-09-30T03:33:48.459Z,99.90
2022-09-30T03:35:16.837Z,99.90
2022-09-30T03:36:34.002Z,99.90
2022-09-30T03:37:53.403Z,99.90
2022-09-30T03:39:07.832Z,99.90
2022-09-30T03:40:22.852Z,99.90
2022-09-30T03:41:38.811Z,99.90
2022-09-30T03:43:06.899Z,99.90
2022-09-30T03:44:25.919Z,99.90
2022-09-30T03:45:50.914Z,99.90
2022-09-30T03:48:25.613Z,99.90
2022-09-30T03:49:57.236Z,99.90
2022-09-30T03:51:05.011Z,99.90
2022-09-30T03:52:16.947Z,99.90
2022-09-30T03:53:23.903Z,99.90
2022-09-30T03:54:34.035Z,99.90
2022-09-30T03:55:48.563Z,99.90
2022-09-30T03:57:00.183Z,99.90
2022-09-30T03:58:12.473Z,99.90
2022-09-30T03:59:46.837Z,99.90
2022-09-30T04:00:58.153Z,99.90
2022-09-30T04:02:03.391Z,99.90
2022-09-30T04:03:11.163Z,99.90
2022-09-30T04:04:16.433Z,99.90
2022-09-30T04:05:23.860Z,99.90
2022-09-30T04:07:49.397Z,99.90
2022-09-30T04:10:15.289Z,99.90
2022-09-30T04:11:19.318Z,99.90
2022-09-30T04:12:24.815Z,99.90
2022-09-30T04:13:27.840Z,99.90
2022-09-30T04:14:39.670Z,99.90
2022-09-30T04:15:44.442Z,99.90
2022-09-30T04:16:55.129Z,99.90
2022-09-30T04:18:00.187Z,99.90
2022-09-30T04:19:11.343Z,99.90
2022-09-30T04:20:16.566Z,99.90
2022-09-30T04:22:46.845Z,99.90
2022-09-30T04:23:54.807Z,99.90
2022-09-30T04:24:59.792Z,99.90
2022-09-30T04:26:07.207Z,99.90
2022-09-30T04:27:10.862Z,99.90
2022-09-30T04:28:16.807Z,99.90
2022-09-30T04:29:23.631Z,99.90
2022-09-30T04:30:34.039Z,99.90
2022-09-30T04:31:51.457Z,99.90
2022-09-30T04:33:00.889Z,99.90
2022-09-30T04:34:09.153Z,99.90
2022-09-30T04:35:17.636Z,99.90
2022-09-30T04:36:21.041Z,99.90
2022-09-30T04:37:34.436Z,99.90
2022-09-30T04:38:54.218Z,99.90
2022-09-30T04:40:01.942Z,99.90
2022-09-30T04:41:10.182Z,99.90
2022-09-30T04:42:38.509Z,99.90
2022-09-30T04:43:48.814Z,99.90
2022-09-30T04:45:17.269Z,99.90
2022-09-30T04:46:40.122Z,99.90
2022-09-30T04:49:10.526Z,99.90
2022-09-30T04:50:19.261Z,99.90
2022-09-30T04:51:48.902Z,99.90
2022-09-30T04:52:53.675Z,99.90
2022-09-30T04:54:06.519Z,99.90
2022-09-30T04:55:21.888Z,99.90
2022-09-30T04:56:30.084Z,99.90
2022-09-30T04:57:54.097Z,99.90
2022-09-30T05:00:29.507Z,99.90
2022-09-30T05:01:40.345Z,99.90
2022-09-30T05:03:04.707Z,99.90
2022-09-30T05:04:12.592Z,99.90
2022-09-30T05:05:24.797Z,99.90
2022-09-30T05:06:54.119Z,99.90
2022-09-30T05:08:09.262Z,99.90
2022-09-30T05:09:27.782Z,99.90
2022-09-30T05:10:34.640Z,99.90
2022-09-30T05:11:43.551Z,99.90
2022-09-30T05:14:37.008Z,99.90
2022-09-30T05:15:43.694Z,99.90
2022-09-30T05:17:02.776Z,99.90
2022-09-30T05:18:18.528Z,99.90
2022-09-30T05:19:33.555Z,99.90
2022-09-30T05:20:53.939Z,99.90
2022-09-30T05:22:05.976Z,99.90
2022-09-30T05:23:14.638Z,99.90
2022-09-30T05:24:23.723Z,99.90
2022-09-30T05:25:30.490Z,99.90
2022-09-30T05:26:52.682Z,99.90
2022-09-30T05:27:59.704Z,99.90
2022-09-30T05:29:08.976Z,99.90
2022-09-30T05:30:18.632Z,99.90
2022-09-30T05:31:24.550Z,99.90
2022-09-30T05:33:57.860Z,99.90
2022-09-30T05:35:06.781Z,99.90
2022-09-30T05:36:17.454Z,99.90
2022-09-30T05:37:26.204Z,99.90
2022-09-30T05:40:05.300Z,99.90
2022-09-30T05:42:58.455Z,99.90
2022-09-30T05:44:14.755Z,99.90
2022-09-30T05:45:39.062Z,99.90
2022-09-30T05:46:47.123Z,99.90
2022-09-30T05:47:57.980Z,99.90
2022-09-30T05:49:30.655Z,99.90
2022-09-30T05:50:52.073Z,99.90
2022-09-30T05:52:06.182Z,99.90
2022-09-30T05:53:11.717Z,99.90
2022-09-30T05:54:21.812Z,99.90
2022-09-30T05:55:29.660Z,99.90
2022-09-30T05:56:33.293Z,99.90
2022-09-30T05:58:09.122Z,99.90
2022-09-30T05:59:17.244Z,99.90
2022-09-30T06:00:43.702Z,99.90
2022-09-30T06:01:54.360Z,99.90
2022-09-30T06:03:02.249Z,99.90
2022-09-30T06:04:17.057Z,99.90
2022-09-30T06:05:37.290Z,99.90
2022-09-30T06:06:48.309Z,99.90
2022-09-30T06:08:08.369Z,99.90
2022-09-30T06:09:25.453Z,99.90
2022-09-30T06:10:41.527Z,99.90
2022-09-30T06:11:52.783Z,99.90
2022-09-30T06:13:16.021Z,99.90
2022-09-30T06:14:29.752Z,99.90
2022-09-30T06:15:35.278Z,99.90
2022-09-30T06:16:51.002Z,99.90
2022-09-30T06:17:57.156Z,99.90
2022-09-30T06:19:02.418Z,99.90
2022-09-30T06:20:08.822Z,99.90
2022-09-30T06:21:17.915Z,99.90
2022-09-30T06:22:37.967Z,99.90
2022-09-30T06:23:50.618Z,99.90
2022-09-30T06:26:15.235Z,99.90
2022-09-30T06:27:24.160Z,99.90
2022-09-30T06:28:32.617Z,99.90
2022-09-30T06:29:46.864Z,99.90
2022-09-30T06:30:59.153Z,99.90
2022-09-30T06:32:18.772Z,99.90
2022-09-30T06:33:37.651Z,99.90
2022-09-30T06:34:44.177Z,99.90
2022-09-30T06:35:49.182Z,99.90
2022-09-30T06:36:55.609Z,99.90
2022-09-30T06:38:01.200Z,99.90
2022-09-30T06:39:13.966Z,99.90
2022-09-30T06:40:21.530Z,99.90
2022-09-30T06:41:32.853Z,99.90
2022-09-30T06:42:39.311Z,99.90
2022-09-30T06:44:00.285Z,99.90
2022-09-30T06:45:25.183Z,99.90
2022-09-30T06:46:53.657Z,99.90
2022-09-30T06:48:33.838Z,99.90
2022-09-30T06:49:49.621Z,99.90
2022-09-30T06:51:05.681Z,99.90
2022-09-30T06:52:24.175Z,99.90
2022-09-30T06:53:37.725Z,99.90
2022-09-30T06:54:54.740Z,99.90
2022-09-30T06:56:06.610Z,99.90
2022-09-30T06:57:16.930Z,99.90
2022-09-30T06:58:30.996Z,99.90
2022-09-30T06:59:46.307Z,99.90
2022-09-30T07:00:59.099Z,99.90
2022-09-30T07:02:26.336Z,99.90
2022-09-30T07:03:40.721Z,99.90
2022-09-30T07:04:45.618Z,99.90
2022-09-30T07:06:12.354Z,99.90
2022-09-30T07:07:31.675Z,99.90
2022-09-30T07:08:40.991Z,99.30
2022-09-30T07:09:47.350Z,99.80
2022-09-30T07:10:52.314Z,99.90
2022-09-30T07:12:03.916Z,99.80
2022-09-30T07:13:13.142Z,99.60
2022-09-30T07:14:19.541Z,99.70
2022-09-30T07:15:38.656Z,99.90
2022-09-30T07:16:49.067Z,99.90
2022-09-30T07:17:57.393Z,99.90
2022-09-30T07:19:11.301Z,99.90
2022-09-30T07:20:19.223Z,99.90
2022-09-30T07:21:26.068Z,99.90
2022-09-30T07:22:39.510Z,99.90
2022-09-30T07:23:53.465Z,99.90
2022-09-30T07:25:02.532Z,99.90
2022-09-30T07:26:08.662Z,99.90
2022-09-30T07:27:19.573Z,99.90
2022-09-30T07:28:42.393Z,99.90
2022-09-30T07:30:11.221Z,99.90
2022-09-30T07:31:39.987Z,99.90
2022-09-30T07:32:49.046Z,99.90
2022-09-30T07:33:57.406Z,99.80
2022-09-30T07:35:06.360Z,99.70
2022-09-30T07:36:18.236Z,99.70
2022-09-30T07:37:23.916Z,99.90
2022-09-30T07:38:34.131Z,99.80
2022-09-30T07:39:54.354Z,99.90
2022-09-30T07:41:13.951Z,99.90
2022-09-30T07:42:23.289Z,99.90
2022-09-30T07:43:39.648Z,99.80
2022-09-30T07:44:49.812Z,99.70
2022-09-30T07:46:01.696Z,99.70
2022-09-30T07:47:10.454Z,99.70
2022-09-30T07:48:34.227Z,99.20
2022-09-30T07:49:46.691Z,99.00
2022-09-30T07:50:59.008Z,98.60
2022-09-30T07:52:14.183Z,98.50
2022-09-30T07:53:28.625Z,98.50
2022-09-30T07:54:46.609Z,98.50
2022-09-30T07:55:57.462Z,98.00
2022-09-30T07:57:24.729Z,97.60
2022-09-30T07:58:33.059Z,97.90
2022-09-30T08:01:38.323Z,97.60
2022-09-30T08:02:57.806Z,97.80
2022-09-30T08:04:18.329Z,98.10
2022-09-30T08:05:28.956Z,99.10
2022-09-30T08:06:44.594Z,98.40
2022-09-30T08:07:48.688Z,98.10
2022-09-30T08:08:58.300Z,98.00
2022-09-30T08:10:05.134Z,98.00
2022-09-30T08:11:28.577Z,97.90
2022-09-30T08:12:41.377Z,98.10
2022-09-30T08:13:59.414Z,98.10
2022-09-30T08:15:13.734Z,97.80
2022-09-30T08:16:28.660Z,97.90
2022-09-30T08:17:36.979Z,97.90
2022-09-30T08:19:14.195Z,97.80
2022-09-30T08:20:39.054Z,98.00
2022-09-30T08:22:19.002Z,98.20
2022-09-30T08:23:47.595Z,97.90
2022-09-30T08:24:53.333Z,98.10
2022-09-30T08:26:04.032Z,98.70
2022-09-30T08:27:19.765Z,98.40
2022-09-30T08:28:32.024Z,98.20
2022-09-30T08:31:21.279Z,98.20
2022-09-30T08:32:42.510Z,98.30
2022-09-30T08:33:57.717Z,98.30
2022-09-30T08:35:12.652Z,98.20
2022-09-30T08:36:25.495Z,97.80
2022-09-30T08:37:54.680Z,98.00
2022-09-30T08:39:37.168Z,98.00
2022-09-30T08:41:20.485Z,97.80
2022-09-30T08:42:55.555Z,97.90
2022-09-30T08:44:42.128Z,97.90
2022-09-30T08:46:17.071Z,97.60
2022-09-30T08:47:45.849Z,97.60
2022-09-30T08:49:08.050Z,98.00
2022-09-30T08:50:34.792Z,98.00
2022-09-30T08:51:56.501Z,98.00
2022-09-30T08:53:11.654Z,98.00
2022-09-30T08:54:32.980Z,97.70
2022-09-30T08:55:45.742Z,97.80
2022-09-30T08:56:54.830Z,97.80
2022-09-30T08:59:48.858Z,97.70
2022-09-30T09:00:59.704Z,97.80
2022-09-30T09:02:28.253Z,97.70
2022-09-30T09:03:45.437Z,97.40
2022-09-30T09:05:05.596Z,97.30
2022-09-30T09:06:28.982Z,97.40
2022-09-30T09:08:00.343Z,97.60
2022-09-30T09:09:53.491Z,97.60
2022-09-30T09:11:13.907Z,97.30
2022-09-30T09:12:46.388Z,97.40
2022-09-30T09:14:04.844Z,97.50
2022-09-30T09:15:42.676Z,97.40
2022-09-30T09:17:06.163Z,97.20
2022-09-30T09:18:30.409Z,97.40
2022-09-30T09:19:45.942Z,97.50
2022-09-30T09:20:58.616Z,97.30
2022-09-30T09:22:09.140Z,97.60
2022-09-30T09:23:17.215Z,97.50
2022-09-30T09:24:50.615Z,97.20
2022-09-30T09:27:42.965Z,97.40
2022-09-30T09:29:07.174Z,97.10
2022-09-30T09:30:22.554Z,97.20
2022-09-30T09:33:50.395Z,97.20
2022-09-30T09:35:20.737Z,97.20
2022-09-30T09:37:02.751Z,97.20
2022-09-30T09:38:33.435Z,96.90
2022-09-30T09:40:09.300Z,96.90
2022-09-30T09:41:29.759Z,97.10
2022-09-30T09:43:06.753Z,96.90
2022-09-30T09:44:33.989Z,97.30
2022-09-30T09:46:10.301Z,97.30
2022-09-30T09:47:17.466Z,97.10
2022-09-30T09:48:26.381Z,97.20
2022-09-30T09:49:59.080Z,97.40
2022-09-30T09:51:15.817Z,97.20
2022-09-30T09:52:51.092Z,97.10
2022-09-30T09:54:04.196Z,97.20
2022-09-30T09:55:18.203Z,96.90
2022-09-30T09:57:51.333Z,96.80
2022-09-30T09:59:30.167Z,96.70
2022-09-30T10:01:09.528Z,96.60
2022-09-30T10:02:43.446Z,96.90
2022-09-30T10:04:17.747Z,96.80
2022-09-30T10:05:27.836Z,96.70
2022-09-30T10:06:48.794Z,99.00
2022-09-30T10:08:15.234Z,99.90
2022-09-30T10:09:38.491Z,99.90
2022-09-30T10:10:54.484Z,98.60
2022-09-30T10:12:30.714Z,98.90
2022-09-30T10:13:45.489Z,96.30
2022-09-30T10:15:11.508Z,97.10
2022-09-30T10:16:36.184Z,97.60
2022-09-30T10:18:10.893Z,97.10
2022-09-30T10:19:30.344Z,95.70
2022-09-30T10:20:58.423Z,94.70
2022-09-30T10:22:23.351Z,94.40
2022-09-30T10:23:36.961Z,95.60
2022-09-30T10:24:58.164Z,96.60
2022-09-30T10:26:22.623Z,94.60
2022-09-30T10:27:40.871Z,93.20
2022-09-30T10:28:51.943Z,93.10
2022-09-30T10:30:11.471Z,94.40
2022-09-30T10:31:34.589Z,93.60
2022-09-30T10:33:13.955Z,93.00
2022-09-30T10:35:07.533Z,92.90
2022-09-30T10:36:48.957Z,93.20
2022-09-30T10:38:10.967Z,93.70
2022-09-30T10:39:44.335Z,94.00
2022-09-30T10:41:30.820Z,94.10
2022-09-30T10:42:58.517Z,93.50
2022-09-30T10:44:37.222Z,93.40
2022-09-30T10:47:34.070Z,94.50
2022-09-30T10:48:58.663Z,94.70
2022-09-30T10:50:15.146Z,94.30
2022-09-30T10:51:54.230Z,94.50
2022-09-30T10:53:35.416Z,94.60
2022-09-30T10:54:58.382Z,94.50
2022-09-30T10:56:08.447Z,94.10
2022-09-30T10:57:42.165Z,94.30
2022-09-30T10:59:21.727Z,94.40
2022-09-30T11:00:36.209Z,94.10
2022-09-30T11:03:23.753Z,94.30
2022-09-30T11:05:15.632Z,94.50
2022-09-30T11:06:24.582Z,94.50
2022-09-30T11:14:54.489Z,94.80
2022-09-30T11:17:59.456Z,93.50
2022-09-30T11:19:14.308Z,93.40
2022-09-30T11:20:37.659Z,93.30
2022-09-30T11:22:13.059Z,93.40
2022-09-30T11:28:35.008Z,93.50
2022-09-30T11:30:06.415Z,93.70
2022-09-30T11:31:41.054Z,93.70
2022-09-30T11:33:27.344Z,93.80
2022-09-30T11:35:08.487Z,93.80
2022-09-30T11:36:46.799Z,93.60
2022-09-30T11:38:37.945Z,93.60
2022-09-30T11:40:19.921Z,93.50
2022-09-30T11:41:39.998Z,93.60
2022-09-30T11:43:22.921Z,93.30
2022-09-30T11:44:52.144Z,93.30
2022-09-30T11:48:33.311Z,93.50
2022-09-30T11:50:50.311Z,93.30
2022-09-30T11:54:22.610Z,93.80
2022-09-30T11:56:09.711Z,93.40
2022-09-30T11:57:25.245Z,98.80
2022-09-30T11:59:00.778Z,95.20
2022-09-30T12:00:30.537Z,93.70
2022-09-30T12:01:54.399Z,93.60
2022-09-30T12:03:15.804Z,93.70
2022-09-30T12:05:01.991Z,93.30
2022-09-30T12:06:39.780Z,93.30
2022-09-30T12:07:53.936Z,93.40
2022-09-30T12:09:32.239Z,93.40
2022-09-30T12:12:19.746Z,93.40
2022-09-30T12:13:40.829Z,95.20
2022-09-30T12:15:16.764Z,93.60
2022-09-30T12:18:24.630Z,93.40
2022-09-30T12:19:43.037Z,93.00
2022-09-30T12:20:58.681Z,93.00
2022-09-30T12:22:18.104Z,93.10
2022-09-30T12:23:38.844Z,93.20
2022-09-30T12:25:24.034Z,93.20
2022-09-30T12:26:49.236Z,93.20
2022-09-30T12:28:27.462Z,93.40
2022-09-30T12:31:57.186Z,95.40
2022-09-30T12:33:48.921Z,99.90
2022-09-30T12:35:06.554Z,94.00
2022-09-30T12:36:49.464Z,93.40
2022-09-30T12:38:35.769Z,92.90
2022-09-30T12:40:10.047Z,92.80
2022-09-30T12:41:37.801Z,92.40
2022-09-30T12:43:17.648Z,92.70
2022-09-30T12:45:18.344Z,92.70
2022-09-30T12:49:09.697Z,92.50
2022-09-30T12:50:36.942Z,92.90
2022-09-30T12:51:55.528Z,92.80
2022-09-30T12:53:12.052Z,92.70
2022-09-30T12:54:38.368Z,92.60
2022-09-30T12:56:08.800Z,92.50
2022-09-30T12:57:32.482Z,92.30
2022-09-30T13:01:51.593Z,92.40
2022-09-30T13:03:19.545Z,92.30
2022-09-30T13:05:01.710Z,92.30
2022-09-30T13:07:11.027Z,92.30
2022-09-30T13:08:59.476Z,92.20
2022-09-30T13:10:37.560Z,92.60
2022-09-30T13:12:21.424Z,92.80
2022-09-30T13:13:38.445Z,92.60
2022-09-30T13:15:01.818Z,92.70
2022-09-30T13:17:10.930Z,92.60
2022-09-30T13:19:01.987Z,92.40
2022-09-30T13:20:59.385Z,92.60
2022-09-30T13:22:56.760Z,92.90
2022-09-30T13:25:58.999Z,92.70
2022-09-30T13:27:20.277Z,92.60
2022-09-30T13:28:39.559Z,92.60
2022-09-30T13:30:04.338Z,93.00
2022-09-30T13:31:46.606Z,93.00
2022-09-30T13:33:35.510Z,92.90
2022-09-30T13:35:03.983Z,92.90
2022-09-30T13:36:26.620Z,93.00
2022-09-30T13:37:43.581Z,93.30
2022-09-30T13:39:24.063Z,93.10
2022-09-30T13:41:00.831Z,92.60
2022-09-30T13:42:26.265Z,91.80
2022-09-30T13:44:11.942Z,91.10
2022-09-30T13:45:42.524Z,91.00
2022-09-30T13:47:11.578Z,90.00
2022-09-30T13:48:37.424Z,88.50
2022-09-30T13:51:22.022Z,89.30
2022-09-30T13:53:09.842Z,89.60
2022-09-30T13:54:55.132Z,89.10
2022-09-30T13:56:26.814Z,90.10
2022-09-30T13:59:50.157Z,90.20
2022-09-30T14:01:19.295Z,90.10
2022-09-30T14:05:06.543Z,90.10
2022-09-30T14:06:33.334Z,90.20
2022-09-30T14:12:33.968Z,90.00
2022-09-30T14:14:03.793Z,90.30
2022-09-30T14:16:11.274Z,90.40
2022-09-30T14:24:52.850Z,90.30
2022-09-30T14:28:12.383Z,90.20
2022-09-30T14:31:40.873Z,90.70
2022-09-30T14:33:09.194Z,90.50
2022-09-30T14:34:36.894Z,90.70
2022-09-30T14:39:28.003Z,90.60
2022-09-30T14:42:47.349Z,90.90
2022-09-30T14:44:24.334Z,90.80
2022-09-30T14:45:37.919Z,90.80
2022-09-30T14:47:11.150Z,91.30
2022-09-30T14:50:18.743Z,90.90
2022-09-30T14:51:57.434Z,93.90
2022-09-30T14:55:56.328Z,92.40
2022-09-30T14:57:51.469Z,91.70
2022-09-30T14:59:28.098Z,91.70
2022-09-30T15:00:35.967Z,91.90
2022-09-30T15:01:59.673Z,92.10
2022-09-30T15:03:18.412Z,91.70
2022-09-30T15:04:51.102Z,91.80
2022-09-30T15:06:16.402Z,92.00
2022-09-30T15:11:19.127Z,91.90
2022-09-30T15:12:45.014Z,92.10
2022-09-30T15:15:37.711Z,92.40
2022-09-30T15:17:02.515Z,92.40
2022-09-30T15:18:39.758Z,92.30
2022-09-30T15:20:02.048Z,91.80
2022-09-30T15:21:24.030Z,92.20
2022-09-30T15:22:43.839Z,92.00
2022-09-30T15:24:00.153Z,91.60
2022-09-30T15:25:32.892Z,91.60
2022-09-30T15:29:15.041Z,92.00
2022-09-30T15:30:33.841Z,92.20
2022-09-30T15:32:02.618Z,92.10
2022-09-30T15:33:08.145Z,92.40
2022-09-30T15:34:36.741Z,92.20
2022-09-30T15:35:45.386Z,92.20
2022-09-30T15:37:07.273Z,92.20
2022-09-30T15:38:43.969Z,92.40
2022-09-30T15:40:19.811Z,92.40
2022-09-30T15:41:36.656Z,92.60
2022-09-30T15:44:22.776Z,92.40
2022-09-30T15:45:39.792Z,92.50
2022-09-30T15:50:05.502Z,92.40
2022-09-30T15:51:47.990Z,92.50
2022-09-30T15:53:02.970Z,92.70
2022-09-30T15:54:59.225Z,92.70
2022-09-30T15:56:42.859Z,92.70
2022-09-30T15:58:14.522Z,92.90
2022-09-30T16:00:05.666Z,92.90
2022-09-30T16:01:29.264Z,92.60
2022-09-30T16:02:53.241Z,92.40
2022-09-30T16:04:22.738Z,92.40
2022-09-30T16:06:09.014Z,92.50
2022-09-30T16:09:34.301Z,92.80
2022-09-30T16:12:22.743Z,92.90
2022-09-30T16:14:46.427Z,92.90
2022-09-30T16:16:12.303Z,92.70
2022-09-30T16:19:07.897Z,92.60
2022-09-30T16:20:29.462Z,92.60
2022-09-30T16:21:48.966Z,92.50
2022-09-30T16:23:44.155Z,92.50
2022-09-30T16:25:21.331Z,92.40
2022-09-30T16:26:45.887Z,92.40
2022-09-30T16:28:01.760Z,92.50
2022-09-30T16:30:50.782Z,92.60
2022-09-30T16:31:58.581Z,92.60
2022-09-30T16:33:14.303Z,92.60
2022-09-30T16:34:27.184Z,92.70
2022-09-30T16:35:35.679Z,92.80
2022-09-30T16:36:43.715Z,92.80
2022-09-30T16:38:08.562Z,92.70
2022-09-30T16:39:26.496Z,92.80
2022-09-30T16:40:40.885Z,92.80
2022-09-30T16:41:47.595Z,92.70
2022-09-30T16:42:58.996Z,92.50
2022-09-30T16:44:11.934Z,92.60
2022-09-30T16:45:41.529Z,92.60
2022-09-30T16:46:47.100Z,92.70
2022-09-30T16:48:27.767Z,92.60
2022-09-30T16:49:43.726Z,92.70
2022-09-30T16:50:55.805Z,92.80
2022-09-30T16:52:12.872Z,92.90
2022-09-30T16:53:48.512Z,93.00
2022-09-30T16:55:12.333Z,93.10
2022-09-30T16:56:34.010Z,92.90
2022-09-30T16:58:05.995Z,92.90
2022-09-30T16:59:28.639Z,92.80
2022-09-30T17:00:49.526Z,93.00
2022-09-30T17:02:03.471Z,93.40
2022-09-30T17:06:35.828Z,93.20
2022-09-30T17:07:54.681Z,93.50
2022-09-30T17:09:07.871Z,93.40
2022-09-30T17:10:42.032Z,93.30
2022-09-30T17:14:03.066Z,93.40
2022-09-30T17:15:33.103Z,93.40
2022-09-30T17:16:56.340Z,93.50
2022-09-30T17:18:19.531Z,93.50
2022-09-30T17:19:32.587Z,93.40
2022-09-30T17:20:53.553Z,93.50
2022-09-30T17:22:45.019Z,93.50
2022-09-30T17:25:56.161Z,93.30
2022-09-30T17:29:00.269Z,93.40
2022-09-30T17:30:51.480Z,93.50
2022-09-30T17:32:38.201Z,93.60
2022-09-30T17:35:41.255Z,93.70
2022-09-30T17:42:28.500Z,94.00
2022-09-30T17:43:48.352Z,93.70
2022-09-30T17:46:14.737Z,93.80
2022-09-30T17:47:55.126Z,93.80
2022-09-30T17:49:14.600Z,93.60
2022-09-30T17:50:41.416Z,93.50
2022-09-30T17:52:09.103Z,93.50
2022-09-30T17:57:26.317Z,93.70
2022-09-30T17:58:45.387Z,93.80
2022-09-30T18:04:04.389Z,94.00
2022-09-30T18:07:43.453Z,94.20
2022-09-30T18:09:52.659Z,94.20
2022-09-30T18:12:17.175Z,94.40
2022-09-30T18:14:47.582Z,94.30
2022-09-30T18:16:44.976Z,94.20
2022-09-30T18:18:41.190Z,94.60
2022-09-30T18:25:30.914Z,94.30
2022-09-30T18:26:54.078Z,94.70
2022-09-30T18:30:16.638Z,95.00
2022-09-30T18:31:52.134Z,95.00
2022-09-30T18:33:43.286Z,95.20
2022-09-30T18:38:02.752Z,95.40
2022-09-30T18:39:47.428Z,95.40
2022-09-30T18:41:40.816Z,95.10
2022-09-30T18:43:29.167Z,95.30
2022-09-30T18:45:10.930Z,95.60
2022-09-30T18:46:28.406Z,95.40
2022-09-30T18:49:37.025Z,95.40
2022-09-30T18:51:18.848Z,95.30
2022-09-30T18:55:07.754Z,95.30
2022-09-30T19:01:18.209Z,95.30
2022-09-30T19:02:40.324Z,95.30
2022-09-30T19:04:28.184Z,95.20
2022-09-30T19:05:50.297Z,95.20
2022-09-30T19:10:52.259Z,95.10
2022-09-30T19:13:52.282Z,95.10
2022-09-30T19:15:31.204Z,95.20
2022-09-30T19:17:21.034Z,95.30
2022-09-30T19:20:16.464Z,95.70
2022-09-30T19:21:55.333Z,95.70
2022-09-30T19:23:31.658Z,95.80
2022-09-30T19:26:59.483Z,95.80
2022-09-30T19:28:45.278Z,95.80
2022-09-30T19:31:42.427Z,96.00
2022-09-30T19:33:56.878Z,96.10
2022-09-30T19:35:55.552Z,96.10
2022-09-30T19:38:02.693Z,96.10
2022-09-30T19:39:49.848Z,95.80
2022-09-30T19:44:35.034Z,96.00
2022-09-30T19:53:41.703Z,96.30
2022-09-30T19:59:28.498Z,96.40
2022-09-30T20:01:19.795Z,96.40
2022-09-30T20:02:31.868Z,96.50
2022-09-30T20:05:42.972Z,96.60
2022-09-30T20:07:20.249Z,96.60
2022-09-30T20:08:46.076Z,96.50
2022-09-30T20:12:43.432Z,99.30
2022-09-30T20:14:25.224Z,97.10
2022-09-30T20:17:49.357Z,96.80
2022-09-30T20:19:38.176Z,96.70
2022-09-30T20:22:56.625Z,96.90
2022-09-30T20:24:38.928Z,97.00
2022-09-30T20:27:33.426Z,96.90
2022-09-30T20:28:47.852Z,97.00
2022-09-30T20:32:04.455Z,97.00
2022-09-30T20:37:24.318Z,97.20
2022-09-30T20:38:34.058Z,97.30
2022-09-30T20:39:56.074Z,98.70
2022-09-30T20:43:18.767Z,97.50
2022-09-30T20:44:42.826Z,97.40
2022-09-30T20:46:00.532Z,97.50
2022-09-30T20:47:46.655Z,97.40
2022-09-30T20:51:11.538Z,97.30